createdAt,value
2023-05-14T00:00:30.075Z,3.30
2023-05-14T00:02:57.010Z,2.83
2023-05-14T00:05:24.192Z,3.30
2023-05-14T00:07:51.051Z,2.67
2023-05-14T00:10:19.455Z,2.72
2023-05-14T00:12:46.600Z,4.10
2023-05-14T00:15:13.905Z,4.07
2023-05-14T00:17:40.993Z,2.83
2023-05-14T00:20:08.493Z,2.80
2023-05-14T00:22:37.426Z,4.10
2023-05-14T00:25:04.772Z,2.15
2023-05-14T00:27:31.596Z,3.40
2023-05-14T00:29:58.465Z,2.78
2023-05-14T00:32:25.664Z,3.47
2023-05-14T00:34:52.520Z,2.17
2023-05-14T00:37:19.499Z,2.42
2023-05-14T00:39:46.377Z,2.72
2023-05-14T00:42:13.290Z,3.05
2023-05-14T00:44:40.204Z,4.18
2023-05-14T00:47:08.342Z,3.28
2023-05-14T00:49:35.706Z,4.32
2023-05-14T00:52:02.868Z,3.28
2023-05-14T00:54:30.671Z,2.63
2023-05-14T00:56:58.572Z,3.35
2023-05-14T00:59:26.298Z,2.50
2023-05-14T01:01:53.640Z,2.25
2023-05-14T01:04:20.647Z,2.97
2023-05-14T01:07:06.235Z,4.03
2023-05-14T01:10:17.828Z,2.75
2023-05-14T01:12:54.284Z,2.60
2023-05-14T01:15:31.216Z,2.92
2023-05-14T01:18:10.495Z,3.40
2023-05-14T01:20:37.408Z,3.95
2023-05-14T01:23:04.498Z,3.13
2023-05-14T01:25:32.614Z,3.17
2023-05-14T01:28:20.448Z,3.08
2023-05-14T01:31:06.134Z,2.28
2023-05-14T01:33:34.338Z,4.30
2023-05-14T01:36:02.195Z,2.67
2023-05-14T01:38:31.923Z,2.17
2023-05-14T01:41:00.329Z,3.58
2023-05-14T01:43:27.908Z,3.22
2023-05-14T01:45:55.888Z,4.28
2023-05-14T01:50:50.189Z,2.17
2023-05-14T01:53:17.198Z,4.00
2023-05-14T01:55:44.258Z,3.40
2023-05-14T01:58:11.303Z,2.40
2023-05-14T02:00:38.525Z,3.77
2023-05-14T02:03:05.515Z,2.35
2023-05-14T02:05:32.580Z,3.13
2023-05-14T02:07:59.661Z,3.03
2023-05-14T02:10:26.509Z,1.95
2023-05-14T02:12:56.480Z,2.22
2023-05-14T02:15:23.632Z,3.17
2023-05-14T02:17:51.097Z,2.03
2023-05-14T02:20:18.078Z,3.70
2023-05-14T02:22:46.281Z,2.40
2023-05-14T02:25:13.340Z,3.15
2023-05-14T02:27:40.547Z,2.60
2023-05-14T02:30:08.350Z,4.28
2023-05-14T02:32:35.338Z,3.05
2023-05-14T02:35:02.308Z,6.45
2023-05-14T02:37:29.090Z,2.92
2023-05-14T02:39:55.889Z,4.30
2023-05-14T02:42:22.663Z,3.95
2023-05-14T02:44:49.746Z,3.60
2023-05-14T02:47:16.650Z,3.45
2023-05-14T02:49:43.392Z,2.60
2023-05-14T02:52:10.271Z,3.38
2023-05-14T02:54:37.044Z,3.00
2023-05-14T02:57:04.145Z,5.07
2023-05-14T02:59:31.700Z,3.23
2023-05-14T03:01:58.906Z,2.50
2023-05-14T03:04:26.047Z,2.50
2023-05-14T03:06:53.027Z,4.45
2023-05-14T03:09:20.296Z,2.45
2023-05-14T03:11:47.210Z,3.83
2023-05-14T03:14:16.888Z,3.58
2023-05-14T03:16:43.600Z,2.35
2023-05-14T03:19:10.492Z,2.53
2023-05-14T03:21:37.340Z,3.38
2023-05-14T03:24:04.281Z,2.58
2023-05-14T03:26:31.394Z,3.22
2023-05-14T03:28:58.182Z,3.20
2023-05-14T03:31:25.193Z,2.85
2023-05-14T03:33:52.344Z,3.67
2023-05-14T03:36:19.036Z,5.85
2023-05-14T03:38:45.889Z,2.72
2023-05-14T03:41:12.669Z,3.20
2023-05-14T03:43:39.383Z,2.92
2023-05-14T03:46:06.113Z,2.53
2023-05-14T03:48:32.808Z,3.20
2023-05-14T03:50:59.781Z,5.50
2023-05-14T03:53:26.543Z,4.03
2023-05-14T03:55:53.356Z,5.28
2023-05-14T03:58:20.516Z,5.95
2023-05-14T04:00:47.574Z,3.35
2023-05-14T04:03:14.714Z,2.83
2023-05-14T04:05:41.628Z,2.15
2023-05-14T04:08:09.510Z,3.28
2023-05-14T04:10:36.342Z,2.47
2023-05-14T04:13:03.153Z,3.75
2023-05-14T04:15:30.088Z,2.80
2023-05-14T04:17:57.161Z,4.45
2023-05-14T04:20:24.329Z,2.28
2023-05-14T04:22:51.333Z,2.47
2023-05-14T04:25:18.625Z,3.50
2023-05-14T04:27:45.467Z,2.95
2023-05-14T04:30:12.876Z,3.55
2023-05-14T04:32:40.046Z,2.50
2023-05-14T04:35:10.188Z,6.38
2023-05-14T04:37:37.081Z,2.38
2023-05-14T04:40:05.087Z,1.60
2023-05-14T04:42:31.816Z,4.40
2023-05-14T04:44:58.949Z,2.40
2023-05-14T04:47:26.650Z,3.92
2023-05-14T04:49:53.684Z,3.17
2023-05-14T04:52:20.736Z,2.88
2023-05-14T04:54:47.718Z,1.70
2023-05-14T04:57:14.662Z,3.20
2023-05-14T04:59:41.413Z,3.75
2023-05-14T05:02:08.233Z,3.40
2023-05-14T05:04:35.159Z,2.93
2023-05-14T05:07:02.265Z,2.60
2023-05-14T05:09:29.066Z,21.40
2023-05-14T05:11:57.041Z,18.65
2023-05-14T05:14:23.796Z,12.02
2023-05-14T05:16:51.551Z,20.10
2023-05-14T05:19:43.044Z,12.63
2023-05-14T05:22:10.628Z,3.95
2023-05-14T05:24:39.216Z,2.65
2023-05-14T05:27:06.710Z,2.33
2023-05-14T05:29:33.622Z,2.85
2023-05-14T05:32:00.880Z,3.50
2023-05-14T05:34:28.389Z,2.67
2023-05-14T05:36:55.583Z,1.73
2023-05-14T05:39:24.227Z,2.63
2023-05-14T05:41:51.300Z,3.42
2023-05-14T05:44:18.027Z,2.13
2023-05-14T05:46:46.133Z,3.17
2023-05-14T05:49:13.062Z,2.08
2023-05-14T05:51:39.876Z,1.52
2023-05-14T05:54:06.594Z,3.10
2023-05-14T05:56:33.472Z,1.90
2023-05-14T05:59:00.613Z,6.10
2023-05-14T06:01:27.367Z,2.70
2023-05-14T06:03:54.047Z,2.75
2023-05-14T06:06:23.872Z,2.45
2023-05-14T06:08:50.865Z,1.98
2023-05-14T06:11:23.446Z,2.42
2023-05-14T06:13:50.711Z,2.13
2023-05-14T06:16:17.576Z,2.03
2023-05-14T06:18:44.366Z,3.23
2023-05-14T06:21:11.531Z,0.93
2023-05-14T06:23:38.271Z,2.05
2023-05-14T06:26:05.150Z,1.65
2023-05-14T06:28:31.924Z,1.85
2023-05-14T06:30:59.850Z,1.58
2023-05-14T06:33:31.083Z,2.33
2023-05-14T06:36:04.243Z,2.55
2023-05-14T06:38:31.262Z,2.20
2023-05-14T06:40:57.972Z,2.63
2023-05-14T06:43:24.778Z,2.38
2023-05-14T06:45:52.375Z,2.00
2023-05-14T06:48:20.393Z,4.18
2023-05-14T06:50:50.452Z,3.97
2023-05-14T06:53:17.368Z,3.05
2023-05-14T06:55:44.181Z,2.70
2023-05-14T06:58:10.946Z,3.67
2023-05-14T07:00:37.994Z,1.92
2023-05-14T07:03:05.041Z,2.75
2023-05-14T07:05:32.272Z,3.78
2023-05-14T07:07:59.254Z,3.85
2023-05-14T07:10:26.552Z,1.80
2023-05-14T07:12:55.485Z,2.45
2023-05-14T07:15:22.292Z,1.55
2023-05-14T07:17:49.689Z,2.47
2023-05-14T07:20:16.914Z,1.77
2023-05-14T07:22:48.193Z,2.30
2023-05-14T07:25:15.746Z,3.33
2023-05-14T07:27:43.054Z,2.88
2023-05-14T07:30:10.820Z,2.90
2023-05-14T07:32:40.674Z,2.10
2023-05-14T07:35:08.682Z,2.97
2023-05-14T07:40:03.206Z,5.68
2023-05-14T07:42:36.639Z,2.88
2023-05-14T07:45:13.294Z,4.40
2023-05-14T07:47:41.052Z,3.10
2023-05-14T07:50:08.920Z,2.55
2023-05-14T07:55:04.549Z,1.38
2023-05-14T07:57:31.323Z,1.73
2023-05-14T07:59:58.251Z,3.17
2023-05-14T08:02:31.397Z,2.67
2023-05-14T08:05:01.880Z,2.58
2023-05-14T08:07:30.325Z,4.72
2023-05-14T08:09:57.738Z,2.70
2023-05-14T08:12:24.594Z,2.03
2023-05-14T08:14:54.790Z,3.17
2023-05-14T08:17:21.680Z,4.38
2023-05-14T08:19:49.619Z,3.90
2023-05-14T08:22:19.144Z,3.10
2023-05-14T08:24:52.358Z,3.55
2023-05-14T08:27:23.525Z,5.10
2023-05-14T08:29:50.503Z,3.25
2023-05-14T08:32:23.214Z,3.55
2023-05-14T08:34:51.983Z,2.45
2023-05-14T08:37:18.984Z,3.47
2023-05-14T08:39:45.642Z,3.20
2023-05-14T08:42:16.876Z,2.60
2023-05-14T08:44:55.986Z,5.18
2023-05-14T08:47:25.092Z,2.67
2023-05-14T08:50:10.174Z,3.80
2023-05-14T08:52:38.264Z,3.42
2023-05-14T08:55:09.644Z,4.20
2023-05-14T08:57:37.905Z,3.83
2023-05-14T09:00:09.325Z,3.80
2023-05-14T09:02:40.157Z,3.80
2023-05-14T09:05:07.623Z,2.72
2023-05-14T09:07:34.413Z,3.40
2023-05-14T09:10:04.637Z,3.03
2023-05-14T09:12:37.264Z,3.88
2023-05-14T09:15:04.861Z,2.03
2023-05-14T09:17:32.142Z,2.65
2023-05-14T09:19:58.971Z,3.05
2023-05-14T09:22:31.343Z,3.63
2023-05-14T09:25:14.950Z,3.63
2023-05-14T09:27:42.643Z,2.65
2023-05-14T09:32:40.524Z,1.70
2023-05-14T09:35:21.761Z,3.22
2023-05-14T09:37:50.617Z,6.85
2023-05-14T09:40:19.689Z,3.05
2023-05-14T09:42:47.009Z,4.35
2023-05-14T09:45:14.007Z,4.07
2023-05-14T09:47:41.024Z,6.18
2023-05-14T09:50:08.837Z,3.45
2023-05-14T09:55:05.747Z,2.33
2023-05-14T09:57:33.768Z,2.60
2023-05-14T10:00:00.661Z,2.65
2023-05-14T10:02:41.400Z,3.72
2023-05-14T10:05:09.103Z,3.92
2023-05-14T10:07:41.772Z,4.13
2023-05-14T10:10:13.829Z,5.00
2023-05-14T10:12:41.019Z,3.72
2023-05-14T10:15:22.454Z,2.55
2023-05-14T10:17:56.330Z,4.25
2023-05-14T10:20:25.407Z,4.15
2023-05-14T10:22:52.659Z,4.57
2023-05-14T10:25:19.736Z,3.92
2023-05-14T10:27:46.704Z,3.58
2023-05-14T10:30:13.857Z,4.40
2023-05-14T10:32:42.050Z,4.15
2023-05-14T10:35:20.956Z,2.60
2023-05-14T10:37:51.389Z,4.50
2023-05-14T10:40:23.710Z,6.32
2023-05-14T10:42:53.907Z,2.75
2023-05-14T10:45:23.086Z,6.28
2023-05-14T10:47:49.819Z,4.00
2023-05-14T10:50:17.856Z,5.00
2023-05-14T10:52:45.882Z,4.65
2023-05-14T10:55:16.323Z,2.97
2023-05-14T10:57:45.365Z,3.42
2023-05-14T11:00:14.819Z,3.40
2023-05-14T11:02:44.043Z,3.05
2023-05-14T11:05:14.398Z,1.50
2023-05-14T11:07:47.033Z,4.40
2023-05-14T11:10:14.946Z,2.72
2023-05-14T11:12:44.192Z,4.20
2023-05-14T11:15:13.537Z,1.63
2023-05-14T11:17:42.421Z,3.20
2023-05-14T11:20:10.218Z,3.03
2023-05-14T11:27:34.372Z,4.00
2023-05-14T11:30:04.861Z,3.55
2023-05-14T11:32:32.900Z,3.58
2023-05-14T11:34:59.663Z,3.72
2023-05-14T11:37:26.509Z,2.50
2023-05-14T11:39:55.402Z,2.50
2023-05-14T11:42:22.769Z,3.05
2023-05-14T11:44:54.095Z,2.17
2023-05-14T11:47:22.053Z,2.45
2023-05-14T11:49:52.512Z,2.92
2023-05-14T11:52:19.717Z,2.80
2023-05-14T11:54:47.076Z,3.38
2023-05-14T11:57:16.743Z,3.60
2023-05-14T11:59:44.224Z,4.45
2023-05-14T12:02:12.858Z,7.28
2023-05-14T12:04:40.418Z,2.92
2023-05-14T12:07:16.777Z,6.70
2023-05-14T12:09:50.983Z,3.05
2023-05-14T12:12:20.158Z,4.63
2023-05-14T12:14:47.526Z,3.92
2023-05-14T12:17:20.178Z,3.30
2023-05-14T12:19:49.699Z,2.47
2023-05-14T12:22:23.089Z,4.20
2023-05-14T12:25:13.802Z,4.03
2023-05-14T12:27:41.601Z,4.13
2023-05-14T12:32:53.142Z,2.85
2023-05-14T12:35:21.706Z,2.38
2023-05-14T12:37:48.581Z,5.10
2023-05-14T12:40:15.670Z,4.93
2023-05-14T12:42:42.291Z,4.40
2023-05-14T12:45:09.308Z,4.28
2023-05-14T12:47:37.206Z,3.20
2023-05-14T12:50:06.122Z,3.55
2023-05-14T12:52:38.341Z,2.75
2023-05-14T12:55:07.787Z,5.25
2023-05-14T12:57:35.736Z,5.80
2023-05-14T13:00:06.767Z,3.80
2023-05-14T13:02:42.975Z,3.30
2023-05-14T13:05:12.148Z,2.78
2023-05-14T13:07:39.187Z,2.95
2023-05-14T13:10:06.853Z,3.88
2023-05-14T13:12:34.034Z,4.57
2023-05-14T13:15:01.331Z,4.25
2023-05-14T13:17:28.388Z,3.40
2023-05-14T13:19:55.248Z,4.97
2023-05-14T13:22:22.050Z,5.83
2023-05-14T13:24:48.951Z,5.28
2023-05-14T13:27:16.299Z,3.60
2023-05-14T13:29:43.075Z,4.30
2023-05-14T13:32:09.804Z,4.30
2023-05-14T13:34:36.614Z,3.30
2023-05-14T13:37:04.211Z,3.37
2023-05-14T13:39:31.080Z,3.55
2023-05-14T13:41:58.066Z,2.80
2023-05-14T13:44:25.291Z,2.97
2023-05-14T13:46:52.552Z,5.05
2023-05-14T13:49:20.761Z,4.30
2023-05-14T13:51:47.727Z,6.32
2023-05-14T13:54:16.916Z,3.15
2023-05-14T13:56:44.151Z,2.45
2023-05-14T13:59:11.362Z,3.10
2023-05-14T14:01:38.325Z,4.15
2023-05-14T14:04:05.531Z,4.60
2023-05-14T14:06:33.325Z,2.63
2023-05-14T14:11:28.126Z,3.00
2023-05-14T14:16:21.588Z,3.93
2023-05-14T14:18:48.448Z,4.97
2023-05-14T14:21:18.489Z,4.60
2023-05-14T14:23:48.381Z,4.53
2023-05-14T14:26:15.161Z,3.00
2023-05-14T14:28:41.935Z,3.67
2023-05-14T14:31:08.757Z,2.95
2023-05-14T14:33:35.793Z,4.70
2023-05-14T14:36:02.684Z,2.85
2023-05-14T14:38:29.518Z,5.67
2023-05-14T14:40:57.256Z,4.32
2023-05-14T14:43:24.975Z,4.63
2023-05-14T14:48:27.635Z,4.35
2023-05-14T14:50:56.467Z,2.97
2023-05-14T14:53:23.894Z,4.68
2023-05-14T14:55:51.761Z,3.40
2023-05-14T14:58:19.936Z,2.97
2023-05-14T15:00:47.687Z,3.78
2023-05-14T15:05:42.582Z,3.50
2023-05-14T15:08:09.738Z,5.50
2023-05-14T15:10:38.372Z,2.42
2023-05-14T15:13:06.599Z,2.55
2023-05-14T15:15:34.580Z,2.22
2023-05-14T15:18:01.977Z,5.30
2023-05-14T15:20:29.122Z,4.18
2023-05-14T15:22:56.118Z,3.00
2023-05-14T15:25:25.110Z,6.13
2023-05-14T15:27:54.245Z,3.92
2023-05-14T15:30:21.004Z,4.95
2023-05-14T15:32:48.103Z,3.15
2023-05-14T15:35:15.154Z,3.42
2023-05-14T15:37:43.838Z,3.03
2023-05-14T15:40:11.554Z,3.90
2023-05-14T15:42:42.201Z,3.85
2023-05-14T15:45:12.966Z,4.03
2023-05-14T15:47:40.357Z,3.03
2023-05-14T15:50:08.557Z,5.20
2023-05-14T15:52:36.588Z,5.18
2023-05-14T15:55:05.353Z,3.13
2023-05-14T15:57:32.463Z,3.22
2023-05-14T15:59:59.525Z,4.53
2023-05-14T16:02:30.360Z,3.88
2023-05-14T16:04:57.546Z,4.65
2023-05-14T16:07:24.377Z,4.20
2023-05-14T16:09:52.008Z,2.97
2023-05-14T16:12:19.006Z,2.35
2023-05-14T16:14:46.892Z,2.50
2023-05-14T16:17:14.667Z,5.10
2023-05-14T16:19:44.586Z,3.08
2023-05-14T16:22:11.533Z,4.47
2023-05-14T16:24:38.567Z,3.88
2023-05-14T16:29:33.768Z,4.43
2023-05-14T16:32:06.556Z,3.55
2023-05-14T16:34:33.381Z,3.70
2023-05-14T16:37:00.866Z,3.67
2023-05-14T16:39:28.460Z,4.30
2023-05-14T16:41:58.475Z,6.50
2023-05-14T16:44:25.843Z,4.53
2023-05-14T16:46:52.940Z,4.13
2023-05-14T16:49:23.199Z,5.63
2023-05-14T16:51:50.181Z,5.75
2023-05-14T16:54:17.589Z,4.93
2023-05-14T16:56:48.450Z,3.00
2023-05-14T16:59:16.165Z,4.90
2023-05-14T17:01:44.475Z,3.47
2023-05-14T17:04:18.545Z,4.45
2023-05-14T17:06:47.157Z,14.07
2023-05-14T17:09:13.933Z,11.80
2023-05-14T17:11:50.029Z,10.52
2023-05-14T17:14:19.838Z,8.85
2023-05-14T17:16:46.669Z,7.72
2023-05-14T17:19:13.669Z,4.40
2023-05-14T17:21:43.574Z,5.43
2023-05-14T17:24:10.235Z,2.85
2023-05-14T17:26:38.048Z,4.30
2023-05-14T17:31:31.820Z,6.28
2023-05-14T17:33:59.222Z,61.20
2023-05-14T17:36:26.384Z,50.45
2023-05-14T17:38:53.179Z,20.95
2023-05-14T17:41:20.185Z,8.67
2023-05-14T17:43:46.948Z,8.02
2023-05-14T17:46:13.881Z,6.07
2023-05-14T17:48:40.990Z,5.77
2023-05-14T17:51:07.732Z,5.85
2023-05-14T17:53:34.942Z,4.53
2023-05-14T17:56:02.125Z,5.53
2023-05-14T17:58:29.268Z,6.13
2023-05-14T18:00:56.960Z,3.80
2023-05-14T18:03:26.829Z,5.25
2023-05-14T18:05:54.001Z,5.63
2023-05-14T18:08:21.121Z,3.67
2023-05-14T18:10:48.143Z,3.88
2023-05-14T18:13:15.511Z,3.67
2023-05-14T18:15:42.515Z,3.20
2023-05-14T18:18:10.220Z,3.17
2023-05-14T18:20:37.250Z,5.20
2023-05-14T18:23:04.107Z,5.35
2023-05-14T18:25:31.176Z,5.53
2023-05-14T18:27:58.154Z,5.95
2023-05-14T18:30:25.080Z,7.40
2023-05-14T18:32:52.040Z,6.43
2023-05-14T18:35:19.460Z,5.20
2023-05-14T18:37:49.336Z,3.45
2023-05-14T18:40:18.487Z,6.25
2023-05-14T18:42:49.934Z,6.40
2023-05-14T18:45:37.599Z,5.85
2023-05-14T18:48:12.127Z,4.57
2023-05-14T18:50:42.086Z,3.67
2023-05-14T18:55:50.306Z,5.78
2023-05-14T18:58:18.231Z,4.72
2023-05-14T19:00:45.373Z,6.13
2023-05-14T19:03:12.302Z,3.78
2023-05-14T19:05:39.299Z,3.40
2023-05-14T19:08:06.718Z,3.03
2023-05-14T19:10:35.307Z,3.72
2023-05-14T19:13:02.295Z,3.90
2023-05-14T19:15:29.106Z,4.77
2023-05-14T19:17:56.007Z,3.20
2023-05-14T19:20:23.129Z,2.43
2023-05-14T19:22:50.144Z,12.85
2023-05-14T19:25:17.344Z,10.65
2023-05-14T19:27:51.351Z,6.40
2023-05-14T19:30:49.818Z,4.90
2023-05-14T19:33:20.331Z,4.93
2023-05-14T19:35:47.891Z,6.18
2023-05-14T19:38:15.131Z,7.28
2023-05-14T19:40:43.664Z,8.70
2023-05-14T19:43:12.066Z,5.13
2023-05-14T19:45:39.472Z,3.90
2023-05-14T19:48:06.757Z,5.70
2023-05-14T19:50:37.183Z,5.72
2023-05-14T19:53:05.002Z,6.65
2023-05-14T19:58:00.341Z,4.63
2023-05-14T20:00:27.997Z,26.27
2023-05-14T20:05:32.508Z,10.90
2023-05-14T20:07:59.894Z,4.43
2023-05-14T20:10:33.246Z,3.88
2023-05-14T20:13:00.641Z,6.45
2023-05-14T20:15:30.459Z,3.47
2023-05-14T20:18:03.090Z,3.20
2023-05-14T20:20:33.048Z,3.72
2023-05-14T20:23:01.301Z,3.42
2023-05-14T20:25:37.656Z,5.15
2023-05-14T20:28:04.876Z,5.53
2023-05-14T20:30:32.845Z,3.90
2023-05-14T20:33:02.805Z,3.65
2023-05-14T20:35:30.550Z,3.67
2023-05-14T20:37:57.924Z,5.13
2023-05-14T20:40:25.717Z,6.10
2023-05-14T20:45:19.977Z,9.80
2023-05-14T20:47:46.885Z,7.43
2023-05-14T20:50:14.239Z,6.03
2023-05-14T20:52:41.171Z,3.08
2023-05-14T20:55:08.705Z,2.53
2023-05-14T20:57:40.114Z,3.88
2023-05-14T21:00:10.240Z,2.60
2023-05-14T21:02:37.995Z,3.47
2023-05-14T21:05:05.757Z,3.30
2023-05-14T21:07:33.320Z,5.07
2023-05-14T21:10:00.434Z,3.47
2023-05-14T21:12:30.243Z,3.40
2023-05-14T21:15:00.404Z,4.57
2023-05-14T21:17:32.646Z,3.35
2023-05-14T21:19:59.590Z,3.53
2023-05-14T21:22:27.729Z,3.33
2023-05-14T21:24:55.970Z,3.45
2023-05-14T21:27:23.571Z,3.42
2023-05-14T21:29:50.630Z,2.28
2023-05-14T21:32:18.448Z,3.63
2023-05-14T21:37:12.626Z,2.47
2023-05-14T21:39:39.786Z,2.90
2023-05-14T21:42:07.435Z,4.25
2023-05-14T21:44:34.580Z,3.58
2023-05-14T21:47:02.218Z,2.63
2023-05-14T21:49:29.223Z,3.42
2023-05-14T21:51:56.166Z,3.67
2023-05-14T21:54:22.968Z,3.63
2023-05-14T21:56:50.014Z,4.07
2023-05-14T21:59:17.008Z,4.45
2023-05-14T22:04:15.108Z,4.78
2023-05-14T22:06:42.544Z,3.22
2023-05-14T22:09:15.622Z,4.95
2023-05-14T22:11:42.504Z,3.40
2023-05-14T22:14:09.482Z,3.37
2023-05-14T22:16:37.453Z,3.58
2023-05-14T22:19:07.613Z,3.95
2023-05-14T22:21:34.616Z,2.22
2023-05-14T22:24:01.406Z,4.73
2023-05-14T22:26:28.395Z,3.30
2023-05-14T22:28:57.146Z,6.25
2023-05-14T22:31:24.206Z,5.13
2023-05-14T22:33:51.258Z,3.75
2023-05-14T22:36:20.330Z,4.30
2023-05-14T22:38:49.422Z,5.30
2023-05-14T22:41:17.709Z,7.53
2023-05-14T22:43:44.672Z,6.75
2023-05-14T22:46:11.681Z,5.18
2023-05-14T22:48:49.405Z,5.47
2023-05-14T22:56:11.084Z,6.18
2023-05-14T22:58:38.459Z,9.45
2023-05-14T23:01:05.887Z,5.82
2023-05-14T23:03:32.848Z,6.22
2023-05-14T23:05:59.589Z,6.20
2023-05-14T23:08:26.456Z,5.80
2023-05-14T23:10:53.231Z,4.43
2023-05-14T23:13:22.930Z,5.50
2023-05-14T23:15:50.228Z,4.50
2023-05-14T23:18:17.602Z,2.72
2023-05-14T23:20:44.861Z,4.43
2023-05-14T23:23:12.112Z,3.97
2023-05-14T23:25:39.686Z,1.80
2023-05-14T23:28:07.299Z,2.33
2023-05-14T23:30:35.787Z,3.33
2023-05-14T23:33:03.287Z,5.22
2023-05-14T23:35:30.670Z,2.42
2023-05-14T23:37:58.135Z,3.72
2023-05-14T23:40:25.222Z,1.55
2023-05-14T23:42:52.661Z,2.83
2023-05-14T23:45:19.855Z,4.85
2023-05-14T23:47:47.077Z,3.35
2023-05-14T23:50:14.311Z,2.53
2023-05-14T23:52:41.350Z,4.07
2023-05-14T23:55:08.652Z,3.45
2023-05-14T23:57:35.980Z,3.40
